sensor_id;sensor_type;location;lat;lon;timestamp;P1;durP1;ratioP1;P2;durP2;ratioP2
9424;SDS011;17139;52.140;11.636;2023-04-28T00:00:05;2.10;;;2.00;;
9424;SDS011;17139;52.140;11.636;2023-04-28T00:02:33;2.03;;;1.70;;
9424;SDS011;17139;52.140;11.636;2023-04-28T00:05:00;1.93;;;1.83;;
9424;SDS011;17139;52.140;11.636;2023-04-28T00:07:27;1.70;;;1.70;;
9424;SDS011;17139;52.140;11.636;2023-04-28T00:09:54;1.77;;;1.67;;
9424;SDS011;17139;52.140;11.636;2023-04-28T00:12:22;3.35;;;1.92;;
9424;SDS011;17139;52.140;11.636;2023-04-28T00:14:51;4.80;;;2.00;;
9424;SDS011;17139;52.140;11.636;2023-04-28T00:17:19;1.60;;;1.60;;
9424;SDS011;17139;52.140;11.636;2023-04-28T00:19:46;2.13;;;1.98;;
9424;SDS011;17139;52.140;11.636;2023-04-28T00:22:13;2.00;;;1.70;;
9424;SDS011;17139;52.140;11.636;2023-04-28T00:24:40;1.63;;;1.60;;
9424;SDS011;17139;52.140;11.636;2023-04-28T00:27:07;2.43;;;1.60;;
9424;SDS011;17139;52.140;11.636;2023-04-28T00:29:34;3.80;;;1.80;;
9424;SDS011;17139;52.140;11.636;2023-04-28T00:32:03;2.03;;;1.93;;
9424;SDS011;17139;52.140;11.636;2023-04-28T00:34:31;1.60;;;1.50;;
9424;SDS011;17139;52.140;11.636;2023-04-28T00:37:01;2.00;;;1.90;;
9424;SDS011;17139;52.140;11.636;2023-04-28T00:39:28;2.10;;;2.00;;
9424;SDS011;17139;52.140;11.636;2023-04-28T00:41:55;4.93;;;1.47;;
9424;SDS011;17139;52.140;11.636;2023-04-28T00:44:22;1.67;;;1.67;;
9424;SDS011;17139;52.140;11.636;2023-04-28T00:46:50;1.60;;;1.60;;
9424;SDS011;17139;52.140;11.636;2023-04-28T00:49:18;3.13;;;2.07;;
9424;SDS011;17139;52.140;11.636;2023-04-28T00:51:45;2.47;;;1.95;;
9424;SDS011;17139;52.140;11.636;2023-04-28T00:54:12;1.90;;;1.80;;
9424;SDS011;17139;52.140;11.636;2023-04-28T00:56:40;2.53;;;2.20;;
9424;SDS011;17139;52.140;11.636;2023-04-28T00:59:07;2.03;;;1.63;;
9424;SDS011;17139;52.140;11.636;2023-04-28T01:01:34;1.50;;;1.40;;
9424;SDS011;17139;52.140;11.636;2023-04-28T01:04:01;1.60;;;1.60;;
9424;SDS011;17139;52.140;11.636;2023-04-28T01:06:30;1.43;;;1.43;;
9424;SDS011;17139;52.140;11.636;2023-04-28T01:08:58;2.50;;;2.30;;
9424;SDS011;17139;52.140;11.636;2023-04-28T01:11:25;1.57;;;1.47;;
9424;SDS011;17139;52.140;11.636;2023-04-28T01:13:52;2.00;;;1.77;;
9424;SDS011;17139;52.140;11.636;2023-04-28T01:16:21;1.80;;;1.70;;
9424;SDS011;17139;52.140;11.636;2023-04-28T01:18:50;1.80;;;1.70;;
9424;SDS011;17139;52.140;11.636;2023-04-28T01:21:24;1.83;;;1.73;;
9424;SDS011;17139;52.140;11.636;2023-04-28T01:23:54;1.87;;;1.60;;
9424;SDS011;17139;52.140;11.636;2023-04-28T01:26:22;1.67;;;1.67;;
9424;SDS011;17139;52.140;11.636;2023-04-28T01:28:49;2.13;;;2.03;;
9424;SDS011;17139;52.140;11.636;2023-04-28T01:31:16;7.20;;;2.20;;
9424;SDS011;17139;52.140;11.636;2023-04-28T01:33:43;2.03;;;1.93;;
9424;SDS011;17139;52.140;11.636;2023-04-28T01:36:10;2.17;;;2.07;;
9424;SDS011;17139;52.140;11.636;2023-04-28T01:38:37;1.80;;;1.70;;
9424;SDS011;17139;52.140;11.636;2023-04-28T01:41:06;1.97;;;1.87;;
9424;SDS011;17139;52.140;11.636;2023-04-28T01:43:33;1.60;;;1.60;;
9424;SDS011;17139;52.140;11.636;2023-04-28T01:46:00;1.97;;;1.80;;
9424;SDS011;17139;52.140;11.636;2023-04-28T01:48:27;1.93;;;1.80;;
9424;SDS011;17139;52.140;11.636;2023-04-28T01:50:54;1.90;;;1.80;;
9424;SDS011;17139;52.140;11.636;2023-04-28T01:53:21;2.50;;;1.50;;
9424;SDS011;17139;52.140;11.636;2023-04-28T01:55:48;5.33;;;2.10;;
9424;SDS011;17139;52.140;11.636;2023-04-28T01:58:17;2.33;;;1.60;;
9424;SDS011;17139;52.140;11.636;2023-04-28T02:00:44;3.00;;;2.10;;
9424;SDS011;17139;52.140;11.636;2023-04-28T02:03:11;2.45;;;2.28;;
9424;SDS011;17139;52.140;11.636;2023-04-28T02:05:38;2.73;;;2.03;;
9424;SDS011;17139;52.140;11.636;2023-04-28T02:08:05;3.33;;;2.00;;
9424;SDS011;17139;52.140;11.636;2023-04-28T02:10:32;1.90;;;1.80;;
9424;SDS011;17139;52.140;11.636;2023-04-28T02:12:59;2.30;;;2.10;;
9424;SDS011;17139;52.140;11.636;2023-04-28T02:15:27;1.80;;;1.80;;
9424;SDS011;17139;52.140;11.636;2023-04-28T02:17:54;2.43;;;2.23;;
9424;SDS011;17139;52.140;11.636;2023-04-28T02:20:21;1.90;;;1.80;;
9424;SDS011;17139;52.140;11.636;2023-04-28T02:22:50;1.90;;;1.80;;
9424;SDS011;17139;52.140;11.636;2023-04-28T02:25:17;2.20;;;2.00;;
9424;SDS011;17139;52.140;11.636;2023-04-28T02:27:44;2.97;;;1.70;;
9424;SDS011;17139;52.140;11.636;2023-04-28T02:30:11;1.77;;;1.77;;
9424;SDS011;17139;52.140;11.636;2023-04-28T02:32:40;2.70;;;2.38;;
9424;SDS011;17139;52.140;11.636;2023-04-28T02:35:07;3.83;;;2.13;;
9424;SDS011;17139;52.140;11.636;2023-04-28T02:37:34;1.90;;;1.90;;
9424;SDS011;17139;52.140;11.636;2023-04-28T02:40:01;2.35;;;2.15;;
9424;SDS011;17139;52.140;11.636;2023-04-28T02:42:28;2.00;;;1.90;;
9424;SDS011;17139;52.140;11.636;2023-04-28T02:44:55;2.00;;;1.80;;
9424;SDS011;17139;52.140;11.636;2023-04-28T02:47:22;2.03;;;1.87;;
9424;SDS011;17139;52.140;11.636;2023-04-28T02:49:50;1.87;;;1.77;;
9424;SDS011;17139;52.140;11.636;2023-04-28T02:52:17;1.50;;;1.50;;
9424;SDS011;17139;52.140;11.636;2023-04-28T02:54:45;2.10;;;2.00;;
9424;SDS011;17139;52.140;11.636;2023-04-28T02:57:13;2.23;;;2.07;;
9424;SDS011;17139;52.140;11.636;2023-04-28T02:59:40;1.80;;;1.70;;
9424;SDS011;17139;52.140;11.636;2023-04-28T03:02:07;1.93;;;1.83;;
9424;SDS011;17139;52.140;11.636;2023-04-28T03:04:34;1.60;;;1.60;;
9424;SDS011;17139;52.140;11.636;2023-04-28T03:07:02;3.27;;;1.80;;
9424;SDS011;17139;52.140;11.636;2023-04-28T03:09:29;2.00;;;1.90;;
9424;SDS011;17139;52.140;11.636;2023-04-28T03:11:57;2.42;;;2.33;;
9424;SDS011;17139;52.140;11.636;2023-04-28T03:14:24;2.65;;;2.22;;
9424;SDS011;17139;52.140;11.636;2023-04-28T03:16:51;2.07;;;1.97;;
9424;SDS011;17139;52.140;11.636;2023-04-28T03:19:18;1.93;;;1.83;;
9424;SDS011;17139;52.140;11.636;2023-04-28T03:21:45;2.00;;;1.90;;
9424;SDS011;17139;52.140;11.636;2023-04-28T03:24:13;1.63;;;1.53;;
9424;SDS011;17139;52.140;11.636;2023-04-28T03:26:40;1.50;;;1.50;;
9424;SDS011;17139;52.140;11.636;2023-04-28T03:29:07;5.07;;;1.97;;
9424;SDS011;17139;52.140;11.636;2023-04-28T03:31:34;1.83;;;1.83;;
9424;SDS011;17139;52.140;11.636;2023-04-28T03:34:01;2.13;;;2.03;;
9424;SDS011;17139;52.140;11.636;2023-04-28T03:36:28;1.80;;;1.80;;
9424;SDS011;17139;52.140;11.636;2023-04-28T03:38:56;2.70;;;1.87;;
9424;SDS011;17139;52.140;11.636;2023-04-28T03:41:24;2.33;;;2.23;;
9424;SDS011;17139;52.140;11.636;2023-04-28T03:43:51;2.50;;;2.00;;
9424;SDS011;17139;52.140;11.636;2023-04-28T03:46:20;2.30;;;2.20;;
9424;SDS011;17139;52.140;11.636;2023-04-28T03:48:48;2.33;;;2.23;;
9424;SDS011;17139;52.140;11.636;2023-04-28T03:51:15;2.80;;;2.13;;
9424;SDS011;17139;52.140;11.636;2023-04-28T03:53:42;2.67;;;2.20;;
9424;SDS011;17139;52.140;11.636;2023-04-28T03:56:09;2.63;;;2.43;;
9424;SDS011;17139;52.140;11.636;2023-04-28T03:58:37;2.57;;;2.37;;
9424;SDS011;17139;52.140;11.636;2023-04-28T04:01:05;4.57;;;2.70;;
9424;SDS011;17139;52.140;11.636;2023-04-28T04:03:32;2.67;;;2.57;;
9424;SDS011;17139;52.140;11.636;2023-04-28T04:05:59;2.27;;;2.07;;
9424;SDS011;17139;52.140;11.636;2023-04-28T04:08:26;2.50;;;2.30;;
9424;SDS011;17139;52.140;11.636;2023-04-28T04:10:53;3.63;;;2.17;;
9424;SDS011;17139;52.140;11.636;2023-04-28T04:13:20;7.65;;;3.58;;
9424;SDS011;17139;52.140;11.636;2023-04-28T04:15:48;3.85;;;3.58;;
9424;SDS011;17139;52.140;11.636;2023-04-28T04:18:16;3.13;;;2.93;;
9424;SDS011;17139;52.140;11.636;2023-04-28T04:20:44;7.40;;;2.90;;
9424;SDS011;17139;52.140;11.636;2023-04-28T04:23:11;3.63;;;2.77;;
9424;SDS011;17139;52.140;11.636;2023-04-28T04:25:38;3.10;;;2.47;;
9424;SDS011;17139;52.140;11.636;2023-04-28T04:28:05;2.83;;;2.73;;
9424;SDS011;17139;52.140;11.636;2023-04-28T04:30:32;3.87;;;2.70;;
9424;SDS011;17139;52.140;11.636;2023-04-28T04:33:00;3.97;;;3.67;;
9424;SDS011;17139;52.140;11.636;2023-04-28T04:35:27;4.13;;;3.73;;
9424;SDS011;17139;52.140;11.636;2023-04-28T04:37:54;3.80;;;3.50;;
9424;SDS011;17139;52.140;11.636;2023-04-28T04:40:21;3.33;;;3.10;;
9424;SDS011;17139;52.140;11.636;2023-04-28T04:42:48;3.23;;;3.03;;
9424;SDS011;17139;52.140;11.636;2023-04-28T04:45:15;3.55;;;3.35;;
9424;SDS011;17139;52.140;11.636;2023-04-28T04:47:43;4.03;;;2.90;;
9424;SDS011;17139;52.140;11.636;2023-04-28T04:50:11;3.43;;;3.13;;
9424;SDS011;17139;52.140;11.636;2023-04-28T04:52:38;7.60;;;3.27;;
9424;SDS011;17139;52.140;11.636;2023-04-28T04:55:06;3.43;;;3.00;;
9424;SDS011;17139;52.140;11.636;2023-04-28T04:57:35;4.00;;;3.63;;
9424;SDS011;17139;52.140;11.636;2023-04-28T05:00:02;4.03;;;2.97;;
9424;SDS011;17139;52.140;11.636;2023-04-28T05:02:30;3.13;;;2.83;;
9424;SDS011;17139;52.140;11.636;2023-04-28T05:04:57;3.40;;;3.20;;
9424;SDS011;17139;52.140;11.636;2023-04-28T05:07:26;3.10;;;2.90;;
9424;SDS011;17139;52.140;11.636;2023-04-28T05:09:53;3.10;;;3.00;;
9424;SDS011;17139;52.140;11.636;2023-04-28T05:12:20;3.40;;;3.20;;
9424;SDS011;17139;52.140;11.636;2023-04-28T05:14:47;3.30;;;3.00;;
9424;SDS011;17139;52.140;11.636;2023-04-28T05:17:14;4.60;;;4.20;;
9424;SDS011;17139;52.140;11.636;2023-04-28T05:19:41;4.47;;;4.25;;
9424;SDS011;17139;52.140;11.636;2023-04-28T05:22:08;3.83;;;3.40;;
9424;SDS011;17139;52.140;11.636;2023-04-28T05:24:37;3.47;;;3.27;;
9424;SDS011;17139;52.140;11.636;2023-04-28T05:27:04;3.70;;;3.40;;
9424;SDS011;17139;52.140;11.636;2023-04-28T05:29:31;3.73;;;3.53;;
9424;SDS011;17139;52.140;11.636;2023-04-28T05:31:58;5.13;;;3.50;;
9424;SDS011;17139;52.140;11.636;2023-04-28T05:34:25;3.70;;;3.40;;
9424;SDS011;17139;52.140;11.636;2023-04-28T05:36:52;3.97;;;3.70;;
9424;SDS011;17139;52.140;11.636;2023-04-28T05:39:19;5.05;;;4.47;;
9424;SDS011;17139;52.140;11.636;2023-04-28T05:41:48;4.73;;;4.33;;
9424;SDS011;17139;52.140;11.636;2023-04-28T05:44:15;3.70;;;3.50;;
9424;SDS011;17139;52.140;11.636;2023-04-28T05:46:42;4.37;;;3.97;;
9424;SDS011;17139;52.140;11.636;2023-04-28T05:49:09;6.28;;;4.70;;
9424;SDS011;17139;52.140;11.636;2023-04-28T05:51:36;6.03;;;3.80;;
9424;SDS011;17139;52.140;11.636;2023-04-28T05:54:03;3.87;;;3.70;;
9424;SDS011;17139;52.140;11.636;2023-04-28T05:56:30;4.70;;;4.40;;
9424;SDS011;17139;52.140;11.636;2023-04-28T05:58:59;5.80;;;3.70;;
9424;SDS011;17139;52.140;11.636;2023-04-28T06:01:28;4.17;;;3.97;;
9424;SDS011;17139;52.140;11.636;2023-04-28T06:03:55;4.70;;;4.37;;
9424;SDS011;17139;52.140;11.636;2023-04-28T06:06:23;4.53;;;3.90;;
9424;SDS011;17139;52.140;11.636;2023-04-28T06:08:50;6.90;;;3.50;;
9424;SDS011;17139;52.140;11.636;2023-04-28T06:11:17;4.23;;;3.83;;
9424;SDS011;17139;52.140;11.636;2023-04-28T06:13:46;4.07;;;3.83;;
9424;SDS011;17139;52.140;11.636;2023-04-28T06:16:14;4.47;;;3.93;;
9424;SDS011;17139;52.140;11.636;2023-04-28T06:18:42;5.38;;;4.88;;
9424;SDS011;17139;52.140;11.636;2023-04-28T06:21:10;4.47;;;4.07;;
9424;SDS011;17139;52.140;11.636;2023-04-28T06:23:37;4.67;;;4.27;;
9424;SDS011;17139;52.140;11.636;2023-04-28T06:26:04;4.83;;;4.43;;
9424;SDS011;17139;52.140;11.636;2023-04-28T06:28:31;4.30;;;4.00;;
9424;SDS011;17139;52.140;11.636;2023-04-28T06:30:59;4.70;;;4.37;;
9424;SDS011;17139;52.140;11.636;2023-04-28T06:33:27;6.60;;;4.40;;
9424;SDS011;17139;52.140;11.636;2023-04-28T06:35:54;4.23;;;4.03;;
9424;SDS011;17139;52.140;11.636;2023-04-28T06:38:21;4.90;;;4.57;;
9424;SDS011;17139;52.140;11.636;2023-04-28T06:40:48;4.77;;;4.37;;
9424;SDS011;17139;52.140;11.636;2023-04-28T06:43:15;5.37;;;4.87;;
9424;SDS011;17139;52.140;11.636;2023-04-28T06:45:43;5.93;;;4.43;;
9424;SDS011;17139;52.140;11.636;2023-04-28T06:48:10;7.20;;;4.03;;
9424;SDS011;17139;52.140;11.636;2023-04-28T06:50:38;5.30;;;4.77;;
9424;SDS011;17139;52.140;11.636;2023-04-28T06:53:05;5.70;;;4.50;;
9424;SDS011;17139;52.140;11.636;2023-04-28T06:55:32;4.60;;;4.20;;
9424;SDS011;17139;52.140;11.636;2023-04-28T06:57:59;4.93;;;4.43;;
9424;SDS011;17139;52.140;11.636;2023-04-28T07:00:27;4.67;;;4.23;;
9424;SDS011;17139;52.140;11.636;2023-04-28T07:02:54;4.27;;;4.00;;
9424;SDS011;17139;52.140;11.636;2023-04-28T07:05:20;8.53;;;4.80;;
9424;SDS011;17139;52.140;11.636;2023-04-28T07:07:49;5.13;;;4.67;;
9424;SDS011;17139;52.140;11.636;2023-04-28T07:10:16;7.67;;;4.50;;
9424;SDS011;17139;52.140;11.636;2023-04-28T07:12:43;9.73;;;4.60;;
9424;SDS011;17139;52.140;11.636;2023-04-28T07:15:10;6.57;;;4.57;;
9424;SDS011;17139;52.140;11.636;2023-04-28T07:17:38;4.80;;;4.40;;
9424;SDS011;17139;52.140;11.636;2023-04-28T07:20:05;6.73;;;4.67;;
9424;SDS011;17139;52.140;11.636;2023-04-28T07:22:33;4.40;;;4.10;;
9424;SDS011;17139;52.140;11.636;2023-04-28T07:25:01;6.35;;;5.20;;
9424;SDS011;17139;52.140;11.636;2023-04-28T07:27:30;5.63;;;5.22;;
9424;SDS011;17139;52.140;11.636;2023-04-28T07:29:57;5.70;;;5.10;;
9424;SDS011;17139;52.140;11.636;2023-04-28T07:32:24;4.80;;;4.53;;
9424;SDS011;17139;52.140;11.636;2023-04-28T07:34:51;4.97;;;4.57;;
9424;SDS011;17139;52.140;11.636;2023-04-28T07:37:18;5.73;;;5.17;;
9424;SDS011;17139;52.140;11.636;2023-04-28T07:39:45;4.53;;;4.23;;
9424;SDS011;17139;52.140;11.636;2023-04-28T07:42:14;6.93;;;4.97;;
9424;SDS011;17139;52.140;11.636;2023-04-28T07:44:41;5.10;;;4.70;;
9424;SDS011;17139;52.140;11.636;2023-04-28T07:47:08;5.73;;;4.90;;
9424;SDS011;17139;52.140;11.636;2023-04-28T07:49:35;6.00;;;5.45;;
9424;SDS011;17139;52.140;11.636;2023-04-28T07:52:02;6.10;;;4.77;;
9424;SDS011;17139;52.140;11.636;2023-04-28T07:54:29;4.63;;;4.43;;
9424;SDS011;17139;52.140;11.636;2023-04-28T07:56:56;5.10;;;4.60;;
9424;SDS011;17139;52.140;11.636;2023-04-28T07:59:25;6.53;;;5.57;;
9424;SDS011;17139;52.140;11.636;2023-04-28T08:01:52;5.30;;;4.50;;
9424;SDS011;17139;52.140;11.636;2023-04-28T08:04:19;5.33;;;4.93;;
9424;SDS011;17139;52.140;11.636;2023-04-28T08:06:46;6.28;;;5.07;;
9424;SDS011;17139;52.140;11.636;2023-04-28T08:09:13;5.80;;;5.23;;
9424;SDS011;17139;52.140;11.636;2023-04-28T08:11:40;6.80;;;5.73;;
9424;SDS011;17139;52.140;11.636;2023-04-28T08:14:07;7.33;;;5.67;;
9424;SDS011;17139;52.140;11.636;2023-04-28T08:16:35;7.43;;;6.05;;
9424;SDS011;17139;52.140;11.636;2023-04-28T08:19:05;6.32;;;5.82;;
9424;SDS011;17139;52.140;11.636;2023-04-28T08:21:32;6.22;;;5.63;;
9424;SDS011;17139;52.140;11.636;2023-04-28T08:23:59;6.30;;;5.72;;
9424;SDS011;17139;52.140;11.636;2023-04-28T08:26:26;7.10;;;5.97;;
9424;SDS011;17139;52.140;11.636;2023-04-28T08:28:54;8.50;;;7.25;;
9424;SDS011;17139;52.140;11.636;2023-04-28T08:31:21;7.35;;;6.75;;
9424;SDS011;17139;52.140;11.636;2023-04-28T08:33:49;6.65;;;6.15;;
9424;SDS011;17139;52.140;11.636;2023-04-28T08:36:19;6.97;;;6.25;;
9424;SDS011;17139;52.140;11.636;2023-04-28T08:38:47;8.60;;;5.82;;
9424;SDS011;17139;52.140;11.636;2023-04-28T08:41:15;7.95;;;6.47;;
9424;SDS011;17139;52.140;11.636;2023-04-28T08:43:43;6.43;;;5.90;;
9424;SDS011;17139;52.140;11.636;2023-04-28T08:46:10;7.10;;;6.57;;
9424;SDS011;17139;52.140;11.636;2023-04-28T08:48:41;6.55;;;6.13;;
9424;SDS011;17139;52.140;11.636;2023-04-28T08:51:13;7.05;;;6.35;;
9424;SDS011;17139;52.140;11.636;2023-04-28T08:53:43;9.18;;;5.60;;
9424;SDS011;17139;52.140;11.636;2023-04-28T08:56:14;6.32;;;5.93;;
9424;SDS011;17139;52.140;11.636;2023-04-28T08:58:43;6.88;;;5.70;;
9424;SDS011;17139;52.140;11.636;2023-04-28T09:01:10;7.45;;;6.38;;
9424;SDS011;17139;52.140;11.636;2023-04-28T09:03:37;6.25;;;5.85;;
9424;SDS011;17139;52.140;11.636;2023-04-28T09:06:04;7.53;;;6.82;;
9424;SDS011;17139;52.140;11.636;2023-04-28T09:08:32;6.65;;;5.90;;
9424;SDS011;17139;52.140;11.636;2023-04-28T09:11:06;6.45;;;5.85;;
9424;SDS011;17139;52.140;11.636;2023-04-28T09:13:34;6.70;;;6.15;;
9424;SDS011;17139;52.140;11.636;2023-04-28T09:16:01;6.72;;;6.00;;
9424;SDS011;17139;52.140;11.636;2023-04-28T09:18:29;5.90;;;5.47;;
9424;SDS011;17139;52.140;11.636;2023-04-28T09:21:03;6.30;;;5.90;;
9424;SDS011;17139;52.140;11.636;2023-04-28T09:23:32;7.07;;;6.10;;
9424;SDS011;17139;52.140;11.636;2023-04-28T09:26:00;6.28;;;5.63;;
9424;SDS011;17139;52.140;11.636;2023-04-28T09:28:28;10.18;;;5.90;;
9424;SDS011;17139;52.140;11.636;2023-04-28T09:30:56;5.57;;;5.03;;
9424;SDS011;17139;52.140;11.636;2023-04-28T09:33:23;6.15;;;4.97;;
9424;SDS011;17139;52.140;11.636;2023-04-28T09:35:50;4.90;;;4.63;;
9424;SDS011;17139;52.140;11.636;2023-04-28T09:38:18;5.45;;;4.97;;
9424;SDS011;17139;52.140;11.636;2023-04-28T09:40:54;5.88;;;5.47;;
9424;SDS011;17139;52.140;11.636;2023-04-28T09:43:25;5.38;;;4.88;;
9424;SDS011;17139;52.140;11.636;2023-04-28T09:45:54;5.00;;;4.70;;
9424;SDS011;17139;52.140;11.636;2023-04-28T09:48:28;8.50;;;5.05;;
9424;SDS011;17139;52.140;11.636;2023-04-28T09:50:57;7.43;;;4.95;;
9424;SDS011;17139;52.140;11.636;2023-04-28T09:53:25;4.80;;;4.50;;
9424;SDS011;17139;52.140;11.636;2023-04-28T09:55:57;6.22;;;5.63;;
9424;SDS011;17139;52.140;11.636;2023-04-28T09:58:28;8.63;;;5.03;;
9424;SDS011;17139;52.140;11.636;2023-04-28T10:00:57;5.70;;;5.20;;
9424;SDS011;17139;52.140;11.636;2023-04-28T10:03:26;6.22;;;5.28;;
9424;SDS011;17139;52.140;11.636;2023-04-28T10:05:55;5.07;;;4.78;;
9424;SDS011;17139;52.140;11.636;2023-04-28T10:08:23;6.18;;;4.97;;
9424;SDS011;17139;52.140;11.636;2023-04-28T10:10:52;5.57;;;4.68;;
9424;SDS011;17139;52.140;11.636;2023-04-28T10:13:21;9.77;;;5.10;;
9424;SDS011;17139;52.140;11.636;2023-04-28T10:15:48;8.50;;;5.88;;
9424;SDS011;17139;52.140;11.636;2023-04-28T10:18:18;5.53;;;5.05;;
9424;SDS011;17139;52.140;11.636;2023-04-28T10:20:49;5.68;;;5.35;;
9424;SDS011;17139;52.140;11.636;2023-04-28T10:23:44;6.18;;;5.32;;
9424;SDS011;17139;52.140;11.636;2023-04-28T10:26:26;6.47;;;5.95;;
9424;SDS011;17139;52.140;11.636;2023-04-28T10:29:19;5.95;;;5.47;;
9424;SDS011;17139;52.140;11.636;2023-04-28T10:34:42;5.75;;;5.43;;
9424;SDS011;17139;52.140;11.636;2023-04-28T10:37:09;5.35;;;5.00;;
9424;SDS011;17139;52.140;11.636;2023-04-28T10:39:38;10.52;;;5.55;;
9424;SDS011;17139;52.140;11.636;2023-04-28T10:45:10;6.40;;;5.85;;
9424;SDS011;17139;52.140;11.636;2023-04-28T10:50:28;5.63;;;5.20;;
9424;SDS011;17139;52.140;11.636;2023-04-28T10:52:56;5.55;;;5.25;;
9424;SDS011;17139;52.140;11.636;2023-04-28T10:55:30;6.75;;;6.10;;
9424;SDS011;17139;52.140;11.636;2023-04-28T11:03:51;5.68;;;5.15;;
9424;SDS011;17139;52.140;11.636;2023-04-28T11:06:24;11.55;;;5.07;;
9424;SDS011;17139;52.140;11.636;2023-04-28T11:08:53;5.35;;;4.85;;
9424;SDS011;17139;52.140;11.636;2023-04-28T11:11:22;8.88;;;5.50;;
9424;SDS011;17139;52.140;11.636;2023-04-28T11:13:51;6.20;;;5.80;;
9424;SDS011;17139;52.140;11.636;2023-04-28T11:16:20;9.98;;;5.45;;
9424;SDS011;17139;52.140;11.636;2023-04-28T11:18:51;6.68;;;6.07;;
9424;SDS011;17139;52.140;11.636;2023-04-28T11:21:30;6.43;;;5.78;;
9424;SDS011;17139;52.140;11.636;2023-04-28T11:23:58;6.53;;;5.95;;
9424;SDS011;17139;52.140;11.636;2023-04-28T11:26:25;6.18;;;5.68;;
9424;SDS011;17139;52.140;11.636;2023-04-28T11:28:54;5.82;;;5.35;;
9424;SDS011;17139;52.140;11.636;2023-04-28T11:31:23;5.72;;;5.10;;
9424;SDS011;17139;52.140;11.636;2023-04-28T11:33:57;5.90;;;5.40;;
9424;SDS011;17139;52.140;11.636;2023-04-28T11:36:29;5.60;;;5.10;;
9424;SDS011;17139;52.140;11.636;2023-04-28T11:38:58;5.47;;;5.18;;
9424;SDS011;17139;52.140;11.636;2023-04-28T11:41:26;6.03;;;5.50;;
9424;SDS011;17139;52.140;11.636;2023-04-28T11:43:53;5.38;;;5.00;;
9424;SDS011;17139;52.140;11.636;2023-04-28T11:46:20;6.28;;;5.68;;
9424;SDS011;17139;52.140;11.636;2023-04-28T11:48:59;5.97;;;5.38;;
9424;SDS011;17139;52.140;11.636;2023-04-28T11:51:34;6.90;;;5.47;;
9424;SDS011;17139;52.140;11.636;2023-04-28T11:54:03;7.88;;;7.15;;
9424;SDS011;17139;52.140;11.636;2023-04-28T11:56:35;8.95;;;5.60;;
9424;SDS011;17139;52.140;11.636;2023-04-28T11:59:03;6.07;;;5.78;;
9424;SDS011;17139;52.140;11.636;2023-04-28T12:01:32;5.05;;;4.75;;
9424;SDS011;17139;52.140;11.636;2023-04-28T12:04:03;6.03;;;5.72;;
9424;SDS011;17139;52.140;11.636;2023-04-28T12:06:30;6.43;;;5.30;;
9424;SDS011;17139;52.140;11.636;2023-04-28T12:08:57;5.78;;;5.28;;
9424;SDS011;17139;52.140;11.636;2023-04-28T12:11:28;5.60;;;4.97;;
9424;SDS011;17139;52.140;11.636;2023-04-28T12:14:03;7.72;;;4.97;;
9424;SDS011;17139;52.140;11.636;2023-04-28T12:16:37;7.22;;;5.35;;
9424;SDS011;17139;52.140;11.636;2023-04-28T12:19:09;7.10;;;5.13;;
9424;SDS011;17139;52.140;11.636;2023-04-28T12:21:37;10.18;;;5.65;;
9424;SDS011;17139;52.140;11.636;2023-04-28T12:24:18;5.65;;;5.18;;
9424;SDS011;17139;52.140;11.636;2023-04-28T12:26:46;5.63;;;5.18;;
9424;SDS011;17139;52.140;11.636;2023-04-28T12:32:12;6.60;;;5.97;;
9424;SDS011;17139;52.140;11.636;2023-04-28T12:34:40;5.35;;;4.97;;
9424;SDS011;17139;52.140;11.636;2023-04-28T12:37:09;5.82;;;5.32;;
9424;SDS011;17139;52.140;11.636;2023-04-28T12:39:39;6.05;;;5.55;;
9424;SDS011;17139;52.140;11.636;2023-04-28T12:42:06;5.80;;;5.38;;
9424;SDS011;17139;52.140;11.636;2023-04-28T12:44:34;5.22;;;4.88;;
9424;SDS011;17139;52.140;11.636;2023-04-28T12:47:02;6.40;;;5.80;;
9424;SDS011;17139;52.140;11.636;2023-04-28T12:49:31;6.03;;;5.32;;
9424;SDS011;17139;52.140;11.636;2023-04-28T12:52:00;6.30;;;5.70;;
9424;SDS011;17139;52.140;11.636;2023-04-28T12:54:27;5.60;;;5.30;;
9424;SDS011;17139;52.140;11.636;2023-04-28T12:56:54;6.72;;;5.40;;
9424;SDS011;17139;52.140;11.636;2023-04-28T12:59:21;6.78;;;6.10;;
9424;SDS011;17139;52.140;11.636;2023-04-28T13:01:49;7.63;;;7.07;;
9424;SDS011;17139;52.140;11.636;2023-04-28T13:04:16;8.17;;;7.50;;
9424;SDS011;17139;52.140;11.636;2023-04-28T13:06:43;7.70;;;7.00;;
9424;SDS011;17139;52.140;11.636;2023-04-28T13:09:12;8.25;;;7.65;;
9424;SDS011;17139;52.140;11.636;2023-04-28T13:11:40;8.50;;;7.30;;
9424;SDS011;17139;52.140;11.636;2023-04-28T13:14:07;9.25;;;6.93;;
9424;SDS011;17139;52.140;11.636;2023-04-28T13:16:34;9.38;;;7.30;;
9424;SDS011;17139;52.140;11.636;2023-04-28T13:19:02;8.30;;;7.38;;
9424;SDS011;17139;52.140;11.636;2023-04-28T13:21:33;9.00;;;8.20;;
9424;SDS011;17139;52.140;11.636;2023-04-28T13:24:03;10.90;;;7.32;;
9424;SDS011;17139;52.140;11.636;2023-04-28T13:26:32;7.85;;;7.20;;
9424;SDS011;17139;52.140;11.636;2023-04-28T13:28:59;8.70;;;7.78;;
9424;SDS011;17139;52.140;11.636;2023-04-28T13:31:28;10.70;;;9.90;;
9424;SDS011;17139;52.140;11.636;2023-04-28T13:33:55;9.65;;;8.60;;
9424;SDS011;17139;52.140;11.636;2023-04-28T13:36:24;8.30;;;7.70;;
9424;SDS011;17139;52.140;11.636;2023-04-28T13:38:53;10.93;;;10.00;;
9424;SDS011;17139;52.140;11.636;2023-04-28T13:41:20;9.80;;;8.50;;
9424;SDS011;17139;52.140;11.636;2023-04-28T13:43:49;8.30;;;7.78;;
9424;SDS011;17139;52.140;11.636;2023-04-28T13:46:17;8.55;;;7.88;;
9424;SDS011;17139;52.140;11.636;2023-04-28T13:48:44;8.23;;;7.55;;
9424;SDS011;17139;52.140;11.636;2023-04-28T13:51:11;8.35;;;7.78;;
9424;SDS011;17139;52.140;11.636;2023-04-28T13:53:38;7.32;;;6.78;;
9424;SDS011;17139;52.140;11.636;2023-04-28T13:56:05;10.93;;;7.30;;
9424;SDS011;17139;52.140;11.636;2023-04-28T13:58:33;9.07;;;8.18;;
9424;SDS011;17139;52.140;11.636;2023-04-28T14:01:02;7.68;;;7.20;;
9424;SDS011;17139;52.140;11.636;2023-04-28T14:03:29;8.43;;;7.80;;
9424;SDS011;17139;52.140;11.636;2023-04-28T14:05:56;7.22;;;6.57;;
9424;SDS011;17139;52.140;11.636;2023-04-28T14:08:24;7.70;;;7.10;;
9424;SDS011;17139;52.140;11.636;2023-04-28T14:10:51;9.95;;;9.15;;
9424;SDS011;17139;52.140;11.636;2023-04-28T14:13:18;9.02;;;8.30;;
9424;SDS011;17139;52.140;11.636;2023-04-28T14:15:46;8.25;;;7.65;;
9424;SDS011;17139;52.140;11.636;2023-04-28T14:18:14;8.32;;;7.55;;
9424;SDS011;17139;52.140;11.636;2023-04-28T14:20:41;7.97;;;7.25;;
9424;SDS011;17139;52.140;11.636;2023-04-28T14:23:09;7.82;;;7.32;;
9424;SDS011;17139;52.140;11.636;2023-04-28T14:25:36;7.75;;;7.35;;
9424;SDS011;17139;52.140;11.636;2023-04-28T14:28:03;7.32;;;6.88;;
9424;SDS011;17139;52.140;11.636;2023-04-28T14:30:30;8.45;;;7.68;;
9424;SDS011;17139;52.140;11.636;2023-04-28T14:32:57;8.45;;;7.70;;
9424;SDS011;17139;52.140;11.636;2023-04-28T14:35:26;8.32;;;7.57;;
9424;SDS011;17139;52.140;11.636;2023-04-28T14:37:55;10.02;;;9.13;;
9424;SDS011;17139;52.140;11.636;2023-04-28T14:40:23;8.23;;;7.65;;
9424;SDS011;17139;52.140;11.636;2023-04-28T14:42:50;10.73;;;8.88;;
9424;SDS011;17139;52.140;11.636;2023-04-28T14:45:17;8.45;;;7.85;;
9424;SDS011;17139;52.140;11.636;2023-04-28T14:47:44;8.43;;;7.82;;
9424;SDS011;17139;52.140;11.636;2023-04-28T14:50:11;8.70;;;7.90;;
9424;SDS011;17139;52.140;11.636;2023-04-28T14:52:40;8.73;;;7.95;;
9424;SDS011;17139;52.140;11.636;2023-04-28T14:55:07;8.57;;;7.90;;
9424;SDS011;17139;52.140;11.636;2023-04-28T14:57:35;9.35;;;8.43;;
9424;SDS011;17139;52.140;11.636;2023-04-28T15:00:02;8.50;;;7.80;;
9424;SDS011;17139;52.140;11.636;2023-04-28T15:02:31;8.90;;;8.27;;
9424;SDS011;17139;52.140;11.636;2023-04-28T15:04:58;9.02;;;8.13;;
9424;SDS011;17139;52.140;11.636;2023-04-28T15:07:25;9.15;;;8.38;;
9424;SDS011;17139;52.140;11.636;2023-04-28T15:09:57;8.85;;;8.02;;